Time;durP1;ratioP1;P1;durP2;ratioP2;P2;SDS_P1;SDS_P2;PMS_P1;PMS_P2;Temp;Humidity;BMP_temperature;BMP_pressure;BME280_temperature;BME280_humidity;BME280_pressure;Samples;Min_cycle;Max_cycle;Signal;HPM_P1;HPM_P2
2023/04/06 00:01:42;;;;;;;20.08;11.73;;;;;;;5.78;58.69;101554.13;3615025;39;20055;-65
2023/04/06 00:04:08;;;;;;;18.85;11.30;;;;;;;5.74;58.82;101544.47;3615673;39;20093;-65
2023/04/06 00:06:34;;;;;;;17.40;11.25;;;;;;;5.76;59.23;101551.50;3614016;39;20089;-66
2023/04/06 00:09:00;;;;;;;17.10;10.57;;;;;;;5.76;58.19;101554.16;3614322;39;20055;-66
2023/04/06 00:11:26;;;;;;;16.00;10.95;;;;;;;5.75;58.47;101549.75;3614373;39;20067;-66
2023/04/06 00:13:53;;;;;;;15.85;10.60;;;;;;;5.76;57.74;101545.31;3614686;39;20047;-65
2023/04/06 00:16:20;;;;;;;16.75;11.00;;;;;;;5.73;57.16;101543.59;3617392;39;20123;-65
2023/04/06 00:18:45;;;;;;;17.27;10.50;;;;;;;5.63;58.04;101528.78;3617380;39;20112;-65
2023/04/06 00:21:13;;;;;;;16.95;11.27;;;;;;;5.42;58.30;101486.75;3616993;39;20301;-65
2023/04/06 00:23:40;;;;;;;18.70;10.55;;;;;;;5.69;57.80;101539.28;3613324;39;20291;-65
2023/04/06 00:26:06;;;;;;;15.88;10.07;;;;;;;5.68;56.15;101536.66;3613640;39;20071;-66
2023/04/06 00:28:32;;;;;;;17.90;10.00;;;;;;;5.67;55.53;101535.78;3615961;39;20455;-65
2023/04/06 00:30:57;;;;;;;14.18;9.73;;;;;;;5.68;56.38;101536.66;3614696;39;20061;-65
2023/04/06 00:33:23;;;;;;;16.00;9.55;;;;;;;5.66;55.85;101534.03;3615214;39;20062;-65
2023/04/06 00:35:50;;;;;;;15.13;9.93;;;;;;;5.60;56.06;101523.56;3615241;39;20054;-65
2023/04/06 00:38:16;;;;;;;14.10;9.50;;;;;;;5.32;56.76;101473.69;3613826;39;20113;-65
2023/04/06 00:40:44;;;;;;;17.83;10.60;;;;;;;5.62;56.46;101524.38;3606894;39;20048;-64
2023/04/06 00:43:11;;;;;;;16.70;10.02;;;;;;;5.63;55.64;101523.47;3616424;39;20123;-65
2023/04/06 00:45:41;;;;;;;17.48;9.93;;;;;;;5.63;56.14;101519.91;3615792;39;20050;-65
2023/04/06 00:48:08;;;;;;;17.23;10.07;;;;;;;5.62;56.71;101516.38;3615884;39;20494;-65
2023/04/06 00:50:34;;;;;;;14.68;10.00;;;;;;;5.57;55.86;101508.50;3617130;39;20059;-65
2023/04/06 00:53:00;;;;;;;14.50;9.90;;;;;;;5.61;56.69;101511.94;3615935;39;20370;-65
2023/04/06 00:55:27;;;;;;;14.73;10.00;;;;;;;5.54;55.03;101486.41;3612839;39;20065;-65
2023/04/06 00:57:54;;;;;;;14.80;9.30;;;;;;;5.61;54.28;101503.94;3613603;39;20051;-64
2023/04/06 01:00:20;;;;;;;16.75;8.88;;;;;;;5.61;53.94;101505.75;3614709;39;20054;-65
2023/04/06 01:02:47;;;;;;;14.48;9.25;;;;;;;5.63;53.06;101495.91;3614534;39;20065;-64
2023/04/06 01:05:13;;;;;;;15.25;9.73;;;;;;;5.67;52.41;101502.91;3612891;39;20062;-65
2023/04/06 01:07:39;;;;;;;15.38;9.70;;;;;;;5.40;52.10;101445.97;3613154;39;20083;-65
2023/04/06 01:10:05;;;;;;;14.35;9.70;;;;;;;5.75;51.44;101491.09;3612755;39;20051;-65
2023/04/06 01:12:31;;;;;;;14.02;9.35;;;;;;;5.80;51.31;101496.25;3615083;39;20055;-65
2023/04/06 01:14:56;;;;;;;16.92;10.38;;;;;;;5.83;51.54;101485.50;3613326;39;20062;-65
2023/04/06 01:17:22;;;;;;;15.88;10.18;;;;;;;5.89;51.53;101487.09;3616106;39;20057;-65
2023/04/06 01:19:49;;;;;;;16.73;9.88;;;;;;;5.94;51.67;101488.75;3612603;39;20429;-66
2023/04/06 01:22:19;;;;;;;18.67;11.00;;;;;;;5.99;50.92;101488.56;3610235;39;20061;-65
2023/04/06 01:24:45;;;;;;;17.13;10.90;;;;;;;6.02;51.44;101496.47;3613219;39;20427;-65
2023/04/06 01:27:12;;;;;;;15.85;10.38;;;;;;;5.96;52.51;101478.00;3614254;39;20381;-65
2023/04/06 01:29:41;;;;;;;15.80;10.60;;;;;;;5.92;53.61;101487.00;3612136;39;20394;-65
2023/04/06 01:32:07;;;;;;;17.38;11.30;;;;;;;5.87;54.12;101478.25;3615237;39;20095;-65
2023/04/06 01:34:33;;;;;;;16.80;10.50;;;;;;;5.84;54.20;101487.25;3613751;39;20054;-66
2023/04/06 01:36:59;;;;;;;13.57;10.52;;;;;;;5.78;54.48;101477.66;3614994;39;20058;-65
2023/04/06 01:39:25;;;;;;;18.30;11.02;;;;;;;5.75;55.36;101480.41;3615245;39;20309;-65
2023/04/06 01:41:51;;;;;;;19.67;11.38;;;;;;;5.57;55.40;101448.97;3616851;39;20050;-65
2023/04/06 01:44:20;;;;;;;18.08;11.23;;;;;;;5.76;54.13;101471.47;3617240;39;20404;-65
2023/04/06 01:46:46;;;;;;;16.00;10.57;;;;;;;5.78;52.95;101458.97;3615565;39;20119;-65
2023/04/06 01:49:12;;;;;;;15.70;11.20;;;;;;;5.87;52.40;101463.16;3614672;39;20309;-65
2023/04/06 01:51:39;;;;;;;16.13;11.02;;;;;;;5.80;52.46;101441.13;3614634;39;20389;-66
2023/04/06 01:54:05;;;;;;;18.42;10.98;;;;;;;5.97;51.69;101453.09;3617007;39;20066;-65
2023/04/06 01:56:30;;;;;;;16.63;10.98;;;;;;;6.05;52.28;101454.56;3618833;39;20160;-65
2023/04/06 01:58:56;;;;;;;18.40;11.13;;;;;;;6.12;52.38;101441.91;3615003;39;20337;-65
2023/04/06 02:01:22;;;;;;;19.75;12.07;;;;;;;6.19;51.90;101443.44;3617695;39;20071;-65
2023/04/06 02:03:48;;;;;;;17.95;11.18;;;;;;;6.17;51.79;101433.72;3614091;39;20058;-65
2023/04/06 02:06:13;;;;;;;17.20;11.25;;;;;;;6.27;51.82;101433.34;3615606;39;20059;-65
2023/04/06 02:08:39;;;;;;;20.85;12.23;;;;;;;6.29;51.28;101427.97;3614904;39;20382;-64
2023/04/06 02:11:05;;;;;;;19.60;11.55;;;;;;;6.36;51.30;101432.16;3604343;39;20368;-65
2023/04/06 02:13:30;;;;;;;19.98;12.00;;;;;;;6.39;51.54;101437.41;3614448;39;20050;-65
2023/04/06 02:15:56;;;;;;;18.73;11.65;;;;;;;6.42;51.41;101429.28;3614589;39;20055;-65
2023/04/06 02:18:22;;;;;;;18.80;11.48;;;;;;;6.43;51.65;101432.81;3614107;39;20058;-65
2023/04/06 02:20:48;;;;;;;18.40;12.10;;;;;;;6.42;51.66;101434.63;3613877;39;20122;-64
2023/04/06 02:23:14;;;;;;;18.73;11.88;;;;;;;6.41;51.12;101429.34;3614674;39;20051;-65
2023/04/06 02:25:40;;;;;;;20.20;12.95;;;;;;;6.40;51.72;101424.91;3614826;39;20347;-65
2023/04/06 02:28:06;;;;;;;20.73;12.20;;;;;;;6.42;51.11;101423.09;3614301;39;20050;-65
2023/04/06 02:30:32;;;;;;;21.05;12.85;;;;;;;6.46;51.58;101424.72;3616555;39;20054;-65
2023/04/06 02:33:00;;;;;;;20.90;13.57;;;;;;;6.39;51.19;101404.50;3616665;39;20055;-65
2023/04/06 02:35:28;;;;;;;23.77;12.60;;;;;;;6.49;51.40;101419.25;3614120;39;20084;-65
2023/04/06 02:37:53;;;;;;;18.58;12.38;;;;;;;6.50;51.38;101415.66;3614165;39;20062;-65
2023/04/06 02:40:19;;;;;;;20.38;12.65;;;;;;;6.46;51.60;101404.22;3614418;39;20051;-65
2023/04/06 02:42:45;;;;;;;19.38;13.35;;;;;;;6.52;51.27;101408.47;3617158;39;20061;-64
2023/04/06 02:45:10;;;;;;;18.38;13.35;;;;;;;6.54;51.90;101401.28;3613995;39;20067;-65
2023/04/06 02:47:36;;;;;;;21.00;13.30;;;;;;;6.56;51.72;101399.41;3614218;39;20050;-65
2023/04/06 02:50:01;;;;;;;22.42;13.60;;;;;;;6.59;51.60;101401.97;3609599;39;20058;-65
2023/04/06 02:52:27;;;;;;;21.25;12.98;;;;;;;6.60;51.85;101395.72;3615046;39;20070;-65
2023/04/06 02:54:53;;;;;;;21.83;13.93;;;;;;;6.62;51.57;101391.19;3614335;39;20347;-65
2023/04/06 02:57:18;;;;;;;22.83;13.45;;;;;;;6.64;51.91;101389.34;3614932;39;20046;-65
2023/04/06 02:59:44;;;;;;;23.30;14.52;;;;;;;6.64;51.92;101391.13;3614185;39;20059;-63
2023/04/06 03:02:10;;;;;;;21.40;13.48;;;;;;;6.64;51.74;101392.00;3614732;39;20058;-65
2023/04/06 03:04:35;;;;;;;20.92;13.75;;;;;;;6.67;51.87;101388.34;3614245;39;20058;-64
2023/04/06 03:07:01;;;;;;;19.10;12.88;;;;;;;6.70;51.54;101391.78;3614758;39;20055;-65
2023/04/06 03:09:27;;;;;;;20.13;14.00;;;;;;;6.71;51.62;101381.97;3614194;39;20042;-65
2023/04/06 03:11:53;;;;;;;21.83;14.95;;;;;;;6.70;51.59;101380.22;3604223;39;20063;-65
2023/04/06 03:14:21;;;;;;;22.20;14.38;;;;;;;6.73;51.99;101380.13;3615323;39;20051;-65
2023/04/06 03:16:50;;;;;;;20.65;14.27;;;;;;;6.76;51.64;101376.47;3613753;39;20079;-64
2023/04/06 03:19:15;;;;;;;22.23;14.52;;;;;;;6.77;51.91;101378.19;3614544;39;20047;-65
2023/04/06 03:21:42;;;;;;;21.88;14.43;;;;;;;6.78;52.29;101377.25;3613755;39;20061;-65
2023/04/06 03:24:08;;;;;;;23.33;15.23;;;;;;;6.78;51.57;101378.13;3608969;39;20070;-65
2023/04/06 03:26:33;;;;;;;23.73;14.35;;;;;;;6.77;51.59;101364.84;3613855;39;20058;-65
2023/04/06 03:28:59;;;;;;;23.20;14.10;;;;;;;6.71;51.36;101349.91;3613256;39;20074;-65
2023/04/06 03:31:26;;;;;;;20.77;13.85;;;;;;;6.82;51.36;101362.84;3614651;39;20062;-65
2023/04/06 03:33:52;;;;;;;25.83;15.18;;;;;;;6.83;51.82;101367.28;3613327;39;20414;-65
2023/04/06 03:36:17;;;;;;;22.13;13.32;;;;;;;6.83;51.93;101359.28;3614216;39;20251;-65
2023/04/06 03:38:43;;;;;;;22.58;14.45;;;;;;;6.71;51.93;101340.09;3613929;39;20046;-66
2023/04/06 03:41:08;;;;;;;22.35;14.07;;;;;;;6.81;52.02;101364.66;3614580;39;20314;-66
2023/04/06 03:43:34;;;;;;;23.20;15.20;;;;;;;6.80;51.87;101362.06;3616890;39;20051;-66
2023/04/06 03:45:59;;;;;;;26.15;14.77;;;;;;;6.79;51.40;101357.63;3613136;39;20046;-65
2023/04/06 03:48:25;;;;;;;19.10;13.77;;;;;;;6.81;51.10;101361.13;3616929;39;20377;-65
2023/04/06 03:50:51;;;;;;;22.23;13.68;;;;;;;6.81;51.18;101361.13;3613203;39;20389;-65
2023/04/06 03:53:16;;;;;;;24.27;14.27;;;;;;;6.79;50.88;101349.59;3616698;39;20073;-67
2023/04/06 03:55:42;;;;;;;22.50;14.38;;;;;;;6.80;50.68;101360.25;3616405;39;20385;-66
2023/04/06 03:58:07;;;;;;;22.15;14.90;;;;;;;6.82;51.31;101358.41;3614047;39;20054;-66
2023/04/06 04:00:33;;;;;;;20.98;14.40;;;;;;;6.82;50.93;101362.84;3613355;39;20312;-66
2023/04/06 04:02:59;;;;;;;21.60;14.68;;;;;;;6.79;50.92;101357.63;3615355;39;20066;-65
2023/04/06 04:05:25;;;;;;;24.70;14.77;;;;;;;6.83;50.91;101360.13;3613404;39;20051;-64
2023/04/06 04:07:52;;;;;;;21.23;14.65;;;;;;;6.82;50.96;101360.19;3613436;39;20054;-65
2023/04/06 04:10:17;;;;;;;21.65;14.88;;;;;;;6.77;50.83;101348.81;3613232;39;20399;-66
2023/04/06 04:12:43;;;;;;;19.77;13.38;;;;;;;6.59;50.77;101332.53;3613237;39;20058;-65
2023/04/06 04:15:09;;;;;;;19.67;14.20;;;;;;;6.76;50.87;101355.97;3613262;39;20046;-66
2023/04/06 04:17:34;;;;;;;20.25;13.80;;;;;;;6.78;50.97;101361.22;3615643;39;20058;-64
2023/04/06 04:20:00;;;;;;;24.65;14.63;;;;;;;6.76;51.05;101363.09;3612909;39;20062;-66
2023/04/06 04:22:27;;;;;;;22.17;13.82;;;;;;;6.69;51.08;101347.31;3613426;39;20058;-65
2023/04/06 04:24:53;;;;;;;21.13;13.90;;;;;;;6.69;51.89;101347.31;3613152;39;20053;-66
2023/04/06 04:27:20;;;;;;;24.20;13.85;;;;;;;6.71;51.26;101345.44;3613084;39;20050;-65
2023/04/06 04:29:45;;;;;;;19.05;13.45;;;;;;;6.80;51.18;101364.72;3614926;39;20393;-66
2023/04/06 04:32:11;;;;;;;21.13;14.18;;;;;;;6.79;51.62;101353.19;3617412;39;20058;-66
2023/04/06 04:34:39;;;;;;;20.50;14.02;;;;;;;6.80;51.04;101348.69;3613797;39;20305;-65
2023/04/06 04:37:06;;;;;;;19.70;13.55;;;;;;;6.79;51.31;101349.59;3613468;39;20053;-64
2023/04/06 04:39:32;;;;;;;22.60;14.40;;;;;;;6.72;51.07;101346.28;3615676;39;20055;-66
2023/04/06 04:41:58;;;;;;;22.23;13.43;;;;;;;6.78;51.12;101354.09;3617848;39;20412;-66
2023/04/06 04:44:23;;;;;;;23.95;14.07;;;;;;;6.70;51.28;101332.16;3616443;39;20057;-65
2023/04/06 04:46:49;;;;;;;22.25;13.57;;;;;;;6.72;50.85;101330.25;3603678;39;20046;-65
2023/04/06 04:49:15;;;;;;;20.38;13.98;;;;;;;6.80;50.77;101349.56;3614571;39;20082;-66
2023/04/06 04:51:40;;;;;;;19.58;13.85;;;;;;;6.81;50.69;101353.97;3613278;39;20055;-65
2023/04/06 04:54:06;;;;;;;19.25;13.73;;;;;;;6.84;50.75;101350.31;3614682;39;20327;-65
2023/04/06 04:56:31;;;;;;;22.17;13.70;;;;;;;6.87;51.15;101350.19;3614672;39;20059;-66
2023/04/06 04:58:57;;;;;;;20.30;13.45;;;;;;;6.82;51.07;101325.44;3615080;39;20051;-65
2023/04/06 05:01:22;;;;;;;21.13;14.45;;;;;;;6.93;50.98;101347.28;3613618;39;20373;-66
2023/04/06 05:03:48;;;;;;;21.00;13.57;;;;;;;6.83;50.88;101321.84;3612934;39;20292;-66
2023/04/06 05:06:14;;;;;;;20.30;13.88;;;;;;;6.97;50.96;101343.56;3614785;39;20047;-66
2023/04/06 05:08:42;;;;;;;21.77;13.90;;;;;;;6.35;49.85;101226.66;3613357;39;20362;-66
2023/04/06 05:11:09;;;;;;;23.42;14.05;;;;;;;7.00;50.35;101339.91;3614733;39;20096;-66
2023/04/06 05:13:34;;;;;;;22.45;13.85;;;;;;;7.01;50.66;101341.63;3616072;39;20057;-66
2023/04/06 05:16:00;;;;;;;20.15;13.50;;;;;;;6.97;50.20;101336.41;3614670;39;20050;-66
2023/04/06 05:18:26;;;;;;;22.88;13.98;;;;;;;7.02;50.41;101336.25;3614778;39;20318;-68
2023/04/06 05:20:51;;;;;;;25.50;14.00;;;;;;;7.04;50.36;101342.41;3606204;39;20061;-67
2023/04/06 05:23:17;;;;;;;22.70;13.57;;;;;;;7.08;50.32;101344.03;3614590;39;20051;-67
2023/04/06 05:25:43;;;;;;;21.65;13.63;;;;;;;7.10;50.18;101342.16;3614570;39;20042;-67
2023/04/06 05:28:08;;;;;;;20.05;13.85;;;;;;;7.12;49.96;101336.75;3616811;39;20046;-67
2023/04/06 05:30:35;;;;;;;21.58;13.90;;;;;;;7.13;49.54;101335.81;3615554;39;20122;-67
2023/04/06 05:33:01;;;;;;;20.52;13.52;;;;;;;7.10;49.45;101331.47;3615053;39;20057;-67
2023/04/06 05:35:27;;;;;;;21.63;13.90;;;;;;;7.12;49.48;101340.28;3617817;39;20317;-70
2023/04/06 05:37:53;;;;;;;21.05;13.38;;;;;;;7.11;49.39;101327.00;3614315;39;20050;-68
2023/04/06 05:40:18;;;;;;;20.23;13.38;;;;;;;7.14;49.27;101343.78;3605100;39;20054;-67
2023/04/06 05:42:44;;;;;;;23.45;14.05;;;;;;;7.17;49.16;101334.78;3616486;39;20058;-67
2023/04/06 05:45:16;;;;;;;22.63;14.35;;;;;;;7.18;49.18;101334.72;3618064;39;20051;-68
2023/04/06 05:47:46;;;;;;;21.20;13.38;;;;;;;7.04;48.97;101309.44;3617708;39;20266;-68
2023/04/06 05:50:13;;;;;;;21.90;13.25;;;;;;;7.21;48.85;101337.25;3619991;39;20055;-68
2023/04/06 05:52:42;;;;;;;20.55;13.57;;;;;;;7.26;49.59;101333.53;3615424;39;20051;-68
2023/04/06 05:55:09;;;;;;;19.58;13.80;;;;;;;7.28;48.91;101334.34;3619325;39;20096;-68
2023/04/06 05:57:34;;;;;;;22.10;13.80;;;;;;;7.32;49.13;101330.59;3615362;39;20102;-68
2023/04/06 06:00:00;;;;;;;18.88;12.52;;;;;;;7.35;49.38;101335.84;3617058;39;20309;-68
2023/04/06 06:02:26;;;;;;;22.70;13.50;;;;;;;7.38;49.30;101328.56;3620530;39;20058;-67
2023/04/06 06:04:51;;;;;;;21.98;13.25;;;;;;;7.39;49.49;101326.75;3605714;39;20440;-68
2023/04/06 06:07:17;;;;;;;21.35;13.65;;;;;;;7.46;49.18;101333.63;3623513;39;20047;-67
2023/04/06 06:09:43;;;;;;;21.88;13.25;;;;;;;7.27;49.51;101300.53;3618310;39;20131;-67
2023/04/06 06:12:09;;;;;;;22.05;14.50;;;;;;;7.48;48.86;101338.88;3617196;39;20270;-67
2023/04/06 06:14:34;;;;;;;24.17;14.85;;;;;;;7.60;48.63;101347.28;3609509;39;20051;-67
2023/04/06 06:17:00;;;;;;;21.67;13.38;;;;;;;7.67;48.43;101354.16;3616964;39;20046;-67
2023/04/06 06:19:25;;;;;;;21.30;13.65;;;;;;;7.70;48.55;101344.22;3615587;39;20334;-68
2023/04/06 06:21:51;;;;;;;20.98;13.85;;;;;;;7.65;48.58;101345.28;3617858;39;20423;-67
2023/04/06 06:24:17;;;;;;;19.80;12.77;;;;;;;7.68;48.56;101339.81;3623083;39;20046;-67
2023/04/06 06:26:42;;;;;;;25.48;14.23;;;;;;;7.58;49.21;101327.75;3621492;39;20390;-67
2023/04/06 06:29:08;;;;;;;20.95;13.77;;;;;;;7.70;48.64;101337.06;3618215;39;20046;-67
2023/04/06 06:31:35;;;;;;;20.45;13.35;;;;;;;7.67;50.11;101338.09;3620109;39;20487;-67
2023/04/06 06:34:01;;;;;;;17.23;12.38;;;;;;;7.64;49.49;101322.16;3618457;39;20139;-68
2023/04/06 06:36:27;;;;;;;18.88;13.55;;;;;;;7.73;48.87;101344.09;3619156;39;20134;-67
2023/04/06 06:38:53;;;;;;;23.92;13.77;;;;;;;7.78;49.15;101336.75;3621310;39;20046;-67
2023/04/06 06:41:19;;;;;;;20.67;13.13;;;;;;;7.81;48.87;101340.19;3619087;39;20043;-68
2023/04/06 06:43:44;;;;;;;20.77;13.48;;;;;;;7.84;49.13;101339.19;3620460;39;20384;-67
2023/04/06 06:46:10;;;;;;;23.17;12.73;;;;;;;7.86;48.29;101339.97;3618039;39;20059;-67
2023/04/06 06:48:36;;;;;;;19.85;13.57;;;;;;;7.89;49.09;101335.34;3619127;39;20458;-67
2023/04/06 06:51:01;;;;;;;20.15;13.52;;;;;;;7.91;48.88;101340.66;3607337;39;20115;-68
2023/04/06 06:53:28;;;;;;;20.20;13.15;;;;;;;7.86;48.78;101331.94;3615254;39;20302;-68
2023/04/06 06:55:54;;;;;;;22.85;13.48;;;;;;;7.95;49.58;101338.72;3616566;39;20358;-68
2023/04/06 06:58:20;;;;;;;19.90;13.13;;;;;;;7.99;49.06;101329.59;3620346;39;20049;-67
2023/04/06 07:00:46;;;;;;;18.35;12.57;;;;;;;8.00;49.24;101336.72;3618102;39;20049;-67
2023/04/06 07:03:12;;;;;;;19.05;13.70;;;;;;;7.96;49.63;101324.38;3618672;39;20119;-68
2023/04/06 07:05:37;;;;;;;21.70;13.98;;;;;;;7.95;49.16;101319.97;3615280;39;20304;-68
2023/04/06 07:08:03;;;;;;;21.40;13.85;;;;;;;7.98;49.38;101320.72;3616258;39;20050;-68
2023/04/06 07:10:29;;;;;;;22.05;13.43;;;;;;;8.12;49.15;101334.38;3613581;39;20050;-68
2023/04/06 07:12:55;;;;;;;19.63;13.32;;;;;;;8.20;48.38;101330.50;3614025;39;20089;-68
2023/04/06 07:15:21;;;;;;;19.23;13.35;;;;;;;8.18;48.84;101324.31;3613377;39;20455;-67
2023/04/06 07:17:46;;;;;;;21.52;14.38;;;;;;;8.28;49.14;101333.72;3613945;39;20047;-68
2023/04/06 07:20:13;;;;;;;24.52;13.82;;;;;;;8.21;48.89;101326.88;3614995;39;20520;-67
2023/04/06 07:22:41;;;;;;;20.80;13.88;;;;;;;8.32;49.33;101335.31;3611792;39;20055;-67
2023/04/06 07:25:07;;;;;;;18.45;13.15;;;;;;;8.32;48.56;101324.59;3616395;39;20054;-67
2023/04/06 07:27:33;;;;;;;20.42;13.73;;;;;;;8.38;48.93;101329.72;3616338;39;20058;-67
2023/04/06 07:29:59;;;;;;;21.77;14.25;;;;;;;8.41;49.65;101332.25;3613821;39;20058;-67
2023/04/06 07:32:24;;;;;;;24.60;14.23;;;;;;;8.45;49.14;101333.00;3617930;39;20061;-68
2023/04/06 07:34:50;;;;;;;19.10;13.70;;;;;;;8.49;49.32;101332.78;3613629;39;20054;-67
2023/04/06 07:37:16;;;;;;;21.67;13.77;;;;;;;8.47;48.71;101326.63;3613516;39;20046;-67
2023/04/06 07:39:41;;;;;;;18.70;13.68;;;;;;;8.45;49.43;101311.56;3614842;39;20286;-66
2023/04/06 07:42:07;;;;;;;19.85;13.73;;;;;;;8.48;49.13;101303.38;3617320;39;20096;-67
2023/04/06 07:44:32;;;;;;;21.00;13.57;;;;;;;8.63;49.24;101328.59;3614636;39;20062;-68
2023/04/06 07:46:58;;;;;;;21.10;13.77;;;;;;;8.60;48.38;101311.72;3604624;39;20051;-67
2023/04/06 07:49:24;;;;;;;20.85;13.20;;;;;;;8.64;49.75;101298.19;3608036;39;20055;-67
2023/04/06 07:51:49;;;;;;;18.95;12.43;;;;;;;8.70;49.20;101289.88;3613507;39;20054;-67
2023/04/06 07:54:15;;;;;;;23.65;14.43;;;;;;;8.90;49.08;101324.66;3613335;39;20091;-68
2023/04/06 07:56:40;;;;;;;20.35;13.52;;;;;;;8.91;48.99;101326.41;3613647;39;20471;-68
2023/04/06 07:59:06;;;;;;;21.98;13.52;;;;;;;8.92;49.06;101336.19;3611832;39;20065;-68
2023/04/06 08:01:32;;;;;;;20.00;14.40;;;;;;;8.77;48.80;101305.59;3620491;39;20194;-68
2023/04/06 08:03:58;;;;;;;20.55;13.00;;;;;;;8.96;48.92;101326.16;3616061;39;20046;-67
2023/04/06 08:06:23;;;;;;;19.23;13.10;;;;;;;9.01;49.28;101337.56;3614045;39;20043;-67
2023/04/06 08:08:49;;;;;;;22.23;13.20;;;;;;;9.06;48.91;101324.78;3615279;39;20062;-67
2023/04/06 08:11:15;;;;;;;21.65;13.98;;;;;;;9.10;49.55;101329.06;3613561;39;20058;-67
2023/04/06 08:13:40;;;;;;;21.80;14.05;;;;;;;9.00;49.00;101304.50;3613685;39;20292;-67
2023/04/06 08:16:06;;;;;;;21.13;14.45;;;;;;;9.22;48.97;101323.09;3616958;39;20054;-68
2023/04/06 08:18:32;;;;;;;23.00;14.50;;;;;;;9.27;48.86;101322.91;3613229;39;20066;-69
2023/04/06 08:20:57;;;;;;;21.55;13.40;;;;;;;9.30;48.80;101326.31;3613568;39;20052;-67
2023/04/06 08:23:23;;;;;;;22.75;13.32;;;;;;;9.34;49.05;101327.03;3612949;39;20058;-67
2023/04/06 08:25:49;;;;;;;20.00;13.77;;;;;;;9.37;48.77;101334.91;3613424;39;20055;-66
2023/04/06 08:28:14;;;;;;;23.35;14.32;;;;;;;9.47;48.93;101327.28;3613241;39;20363;-67
2023/04/06 08:30:42;;;;;;;18.38;13.07;;;;;;;9.54;49.28;101323.34;3620194;39;20051;-67
2023/04/06 08:33:08;;;;;;;19.38;13.00;;;;;;;9.62;48.47;101325.66;3613481;39;20047;-66
2023/04/06 08:35:34;;;;;;;18.63;13.85;;;;;;;9.74;49.08;101333.97;3615374;39;20151;-67
2023/04/06 08:37:59;;;;;;;20.23;13.25;;;;;;;9.79;48.58;101330.19;3615370;39;20353;-67
2023/04/06 08:40:26;;;;;;;19.52;13.13;;;;;;;9.66;48.45;101316.50;3610312;39;20046;-67
2023/04/06 08:42:56;;;;;;;23.42;13.57;;;;;;;9.69;48.84;101306.47;3618959;39;20046;-67
2023/04/06 08:45:23;;;;;;;20.48;13.32;;;;;;;9.77;48.51;101320.41;3616048;39;20108;-68
2023/04/06 08:47:52;;;;;;;18.85;13.20;;;;;;;9.84;49.43;101331.69;3615010;39;20304;-67
2023/04/06 08:50:18;;;;;;;21.83;13.88;;;;;;;9.88;48.53;101335.94;3615167;39;20088;-66
2023/04/06 08:52:48;;;;;;;20.13;13.98;;;;;;;9.98;48.63;101323.78;3614781;39;20123;-68
2023/04/06 08:55:16;;;;;;;19.95;12.77;;;;;;;10.08;49.26;101339.44;3614651;39;20365;-67
2023/04/06 08:57:43;;;;;;;20.00;13.65;;;;;;;10.15;48.72;101335.50;3615278;39;20406;-67
2023/04/06 09:00:11;;;;;;;22.33;13.25;;;;;;;10.17;49.44;101329.06;3617437;39;20114;-67
2023/04/06 09:02:42;;;;;;;22.02;13.50;;;;;;;10.08;49.44;101307.19;3614543;39;20065;-67
2023/04/06 09:05:10;;;;;;;21.38;13.73;;;;;;;10.26;49.42;101337.63;3605560;39;20055;-67
2023/04/06 09:07:36;;;;;;;20.55;13.43;;;;;;;10.30;49.18;101337.41;3614891;39;20297;-69
2023/04/06 09:10:04;;;;;;;20.65;13.98;;;;;;;10.35;49.22;101342.53;3616926;39;20077;-67
2023/04/06 09:12:32;;;;;;;21.55;14.05;;;;;;;10.30;49.58;101329.34;3619857;39;20063;-67
2023/04/06 09:15:00;;;;;;;20.58;14.52;;;;;;;10.35;50.04;101338.03;3614884;39;20058;-67
2023/04/06 09:17:29;;;;;;;19.55;13.68;;;;;;;10.42;51.12;101343.94;3615355;39;20051;-67
2023/04/06 09:19:56;;;;;;;22.02;14.85;;;;;;;10.44;51.30;101334.88;3614553;39;20073;-67
2023/04/06 09:22:22;;;;;;;21.02;14.90;;;;;;;10.57;52.20;101353.03;3614493;39;20116;-67
2023/04/06 09:24:54;;;;;;;21.80;14.27;;;;;;;10.60;53.62;101347.50;3615551;39;20065;-67
2023/04/06 09:27:34;;;;;;;21.40;15.13;;;;;;;10.52;53.37;101323.69;3615919;39;20115;-67
2023/04/06 09:30:16;;;;;;;19.83;13.15;;;;;;;10.44;54.39;101310.69;3614936;39;20087;-67
2023/04/06 09:32:55;;;;;;;23.00;13.73;;;;;;;10.61;53.84;101339.31;3619056;39;20462;-68
2023/04/06 09:35:22;;;;;;;17.73;12.93;;;;;;;10.68;53.18;101345.25;3615699;39;20112;-68
2023/04/06 09:37:51;;;;;;;21.73;13.55;;;;;;;10.65;53.43;101331.97;3615489;39;20051;-68
2023/04/06 09:40:18;;;;;;;25.77;15.88;;;;;;;10.78;54.28;101341.09;3620184;39;20061;-68
2023/04/06 09:42:53;;;;;;;22.02;14.43;;;;;;;10.81;53.16;101340.94;3616353;39;20045;-68
2023/04/06 09:45:20;;;;;;;22.98;13.60;;;;;;;10.84;52.63;101335.38;3606964;39;20050;-67
2023/04/06 09:47:46;;;;;;;18.63;13.32;;;;;;;10.70;54.08;101313.78;3615476;39;20285;-67
2023/04/06 09:50:14;;;;;;;19.38;12.73;;;;;;;10.78;53.59;101342.91;3615575;39;20127;-67
2023/04/06 09:52:49;;;;;;;19.00;11.95;;;;;;;10.78;54.43;101326.78;3614559;39;20051;-68
2023/04/06 09:55:54;;;;;;;20.10;12.40;;;;;;;10.77;53.95;101344.75;3614320;39;20317;-69
2023/04/06 09:58:26;;;;;;;14.82;10.80;;;;;;;10.45;54.72;101290.91;3613963;39;20270;-68
2023/04/06 10:01:03;;;;;;;17.00;10.95;;;;;;;10.56;56.56;101335.13;3614785;39;20046;-68
2023/04/06 10:04:03;;;;;;;17.30;11.38;;;;;;;10.52;57.71;101337.13;3614415;39;20125;-67
2023/04/06 10:06:35;;;;;;;13.73;10.77;;;;;;;10.47;58.16;101338.34;3605252;39;20062;-68
2023/04/06 10:09:07;;;;;;;17.38;11.52;;;;;;;10.52;59.39;101336.25;3617286;39;20054;-67
2023/04/06 10:11:34;;;;;;;17.52;10.60;;;;;;;10.49;59.94;101342.66;3615129;39;20043;-68
2023/04/06 10:14:00;;;;;;;16.17;9.70;;;;;;;10.49;58.60;101336.44;3615465;39;20119;-68
2023/04/06 10:16:29;;;;;;;13.90;9.52;;;;;;;10.47;59.47;101336.53;3618785;39;20119;-68
2023/04/06 10:19:09;;;;;;;13.98;9.77;;;;;;;10.52;61.08;101338.97;3614763;39;20043;-68
2023/04/06 10:21:39;;;;;;;15.88;10.20;;;;;;;10.55;62.71;101338.78;3614372;39;20348;-68
2023/04/06 10:24:10;;;;;;;15.57;9.90;;;;;;;10.04;61.24;101265.34;3614740;39;20120;-67
2023/04/06 10:26:36;;;;;;;14.38;10.10;;;;;;;10.10;62.68;101273.94;3614689;39;20058;-67
2023/04/06 10:29:04;;;;;;;15.10;9.05;;;;;;;10.54;61.81;101339.75;3613990;39;20355;-68
2023/04/06 10:31:31;;;;;;;14.98;9.57;;;;;;;10.55;62.55;101342.34;3613718;39;20102;-69
2023/04/06 10:34:02;;;;;;;13.10;9.50;;;;;;;10.54;62.24;101342.44;3614913;39;20062;-68
2023/04/06 10:36:33;;;;;;;12.68;9.05;;;;;;;10.38;62.48;101321.75;3608631;39;20066;-68
2023/04/06 10:39:03;;;;;;;12.82;9.55;;;;;;;10.41;63.22;101336.84;3614663;39;20047;-67
2023/04/06 10:41:44;;;;;;;15.93;10.00;;;;;;;10.28;63.73;101336.63;3613344;39;20072;-65
2023/04/06 10:44:22;;;;;;;16.48;9.90;;;;;;;10.26;65.22;101338.50;3615445;39;20126;-64
2023/04/06 10:47:02;;;;;;;15.25;8.98;;;;;;;10.23;66.50;101335.97;3613980;39;20274;-66
2023/04/06 10:49:28;;;;;;;12.07;8.48;;;;;;;10.20;65.13;101333.44;3616479;39;20066;-65
2023/04/06 10:51:56;;;;;;;13.93;7.97;;;;;;;10.20;66.14;101344.16;3614032;39;20094;-65
2023/04/06 10:54:26;;;;;;;9.23;7.00;;;;;;;10.14;66.18;101323.88;3613718;39;20046;-65
2023/04/06 10:56:52;;;;;;;10.70;7.60;;;;;;;10.08;67.19;101336.75;3615013;39;20043;-65
2023/04/06 10:59:22;;;;;;;11.05;7.13;;;;;;;9.87;68.02;101299.31;3614683;39;20089;-65
2023/04/06 11:01:48;;;;;;;12.48;7.60;;;;;;;10.08;67.74;101317.94;3616508;39;20057;-64
2023/04/06 11:04:19;;;;;;;9.65;7.38;;;;;;;10.09;67.92;101317.00;3614431;39;20234;-65
2023/04/06 11:06:50;;;;;;;12.80;8.18;;;;;;;10.15;68.53;101324.75;3613880;39;20065;-66
2023/04/06 11:09:28;;;;;;;25.02;13.73;;;;;;;10.17;68.82;101326.38;3616698;39;20073;-65
2023/04/06 11:11:55;;;;;;;13.55;7.88;;;;;;;10.13;67.86;101326.66;3614101;39;20377;-65
2023/04/06 11:14:20;;;;;;;12.82;8.57;;;;;;;10.03;68.22;101318.19;3614647;39;20366;-65
2023/04/06 11:16:50;;;;;;;10.82;8.63;;;;;;;9.63;67.85;101263.84;3614010;39;20054;-65